createdAt,value
2023-03-31T00:02:13.548Z,46.10
2023-03-31T00:04:46.576Z,46.06
2023-03-31T00:07:16.716Z,44.81
2023-03-31T00:09:46.670Z,45.94
2023-03-31T00:12:16.800Z,46.68
2023-03-31T00:14:46.793Z,47.30
2023-03-31T00:17:17.420Z,47.76
2023-03-31T00:19:49.970Z,46.39
2023-03-31T00:22:22.192Z,46.81
2023-03-31T00:24:51.872Z,46.08
2023-03-31T00:27:21.090Z,45.72
2023-03-31T00:29:50.873Z,46.01
2023-03-31T00:32:21.537Z,45.87
2023-03-31T00:34:50.999Z,47.00
2023-03-31T00:37:21.175Z,46.56
2023-03-31T00:39:51.992Z,46.41
2023-03-31T00:42:21.330Z,46.74
2023-03-31T00:45:23.484Z,44.72
2023-03-31T00:47:59.782Z,47.20
2023-03-31T00:50:32.559Z,46.41
2023-03-31T00:53:07.227Z,44.26
2023-03-31T00:55:40.515Z,44.96
2023-03-31T00:58:14.505Z,46.25
2023-03-31T01:00:44.419Z,47.21
2023-03-31T01:03:16.148Z,45.83
2023-03-31T01:05:50.227Z,46.26
2023-03-31T01:08:24.502Z,43.56
2023-03-31T01:10:56.909Z,43.47
2023-03-31T01:13:27.864Z,45.43
2023-03-31T01:15:57.574Z,46.02
2023-03-31T01:18:35.052Z,45.78
2023-03-31T01:21:31.876Z,46.20
2023-03-31T01:24:38.093Z,44.54
2023-03-31T01:27:25.585Z,46.16
2023-03-31T01:30:18.402Z,44.63
2023-03-31T01:33:26.566Z,42.25
2023-03-31T01:36:21.312Z,44.19
2023-03-31T01:39:20.836Z,43.19
2023-03-31T01:42:00.454Z,44.67
2023-03-31T01:44:40.725Z,44.46
2023-03-31T01:47:18.372Z,43.50
2023-03-31T01:49:56.395Z,43.75
2023-03-31T01:52:30.080Z,44.00
2023-03-31T01:55:10.242Z,44.45
2023-03-31T01:57:45.777Z,43.02
2023-03-31T02:00:18.281Z,43.12
2023-03-31T02:02:52.094Z,44.90
2023-03-31T02:05:26.067Z,44.39
2023-03-31T02:07:59.320Z,44.76
2023-03-31T02:10:32.796Z,45.90
2023-03-31T02:13:05.001Z,44.69
2023-03-31T02:15:38.349Z,44.76
2023-03-31T02:18:12.596Z,44.16
2023-03-31T02:20:46.402Z,45.29
2023-03-31T02:23:20.944Z,44.92
2023-03-31T02:25:54.388Z,44.67
2023-03-31T02:28:28.652Z,46.44
2023-03-31T02:35:56.289Z,46.00
2023-03-31T02:38:25.932Z,45.72
2023-03-31T02:40:55.572Z,47.14
2023-03-31T02:43:26.220Z,47.55
2023-03-31T02:45:56.778Z,44.98
2023-03-31T02:48:28.577Z,46.85
2023-03-31T02:51:20.964Z,46.72
2023-03-31T02:54:04.239Z,46.17
2023-03-31T02:57:00.393Z,45.92
2023-03-31T02:59:43.144Z,45.73
2023-03-31T03:02:20.518Z,44.65
2023-03-31T03:05:21.456Z,44.09
2023-03-31T03:08:22.359Z,42.49
2023-03-31T03:11:02.038Z,42.30
2023-03-31T03:13:37.768Z,42.71
2023-03-31T03:16:14.050Z,42.42
2023-03-31T03:18:44.020Z,42.93
2023-03-31T03:21:13.199Z,44.67
2023-03-31T03:23:43.299Z,42.72
2023-03-31T03:26:12.570Z,43.41
2023-03-31T03:28:41.997Z,43.03
2023-03-31T03:31:13.571Z,42.24
2023-03-31T03:33:43.397Z,42.78
2023-03-31T03:36:12.844Z,43.05
2023-03-31T03:38:42.270Z,42.64
2023-03-31T03:41:11.525Z,41.97
2023-03-31T03:43:41.062Z,42.22
2023-03-31T03:46:11.684Z,44.16
2023-03-31T03:48:41.390Z,42.77
2023-03-31T03:51:10.724Z,42.94
2023-03-31T03:53:40.370Z,46.17
2023-03-31T03:56:09.665Z,44.89
2023-03-31T03:58:39.180Z,43.50
2023-03-31T04:01:08.755Z,44.26
2023-03-31T04:03:39.613Z,45.22
2023-03-31T04:06:09.303Z,44.92
2023-03-31T04:08:38.934Z,42.70
2023-03-31T04:11:17.341Z,43.09
2023-03-31T04:13:48.805Z,43.51
2023-03-31T04:16:18.170Z,43.30
2023-03-31T04:18:49.200Z,42.44
2023-03-31T04:21:23.248Z,43.48
2023-03-31T04:23:58.911Z,43.07
2023-03-31T04:26:43.503Z,42.49
2023-03-31T04:29:14.651Z,42.39
2023-03-31T04:31:44.695Z,45.49
2023-03-31T04:34:16.727Z,45.43
2023-03-31T04:36:48.287Z,45.89
2023-03-31T04:39:24.478Z,44.59
2023-03-31T04:41:53.565Z,44.63
2023-03-31T04:44:23.195Z,44.63
2023-03-31T04:46:52.419Z,45.10
2023-03-31T04:49:23.328Z,42.99
2023-03-31T04:51:52.560Z,43.57
2023-03-31T04:54:22.540Z,42.74
2023-03-31T04:56:51.966Z,45.24
2023-03-31T04:59:21.513Z,42.26
2023-03-31T05:01:50.749Z,41.31
2023-03-31T05:04:20.321Z,41.88
2023-03-31T05:06:51.255Z,43.60
2023-03-31T05:09:20.912Z,43.28
2023-03-31T05:11:50.164Z,45.47
2023-03-31T05:14:19.637Z,44.08
2023-03-31T05:16:48.865Z,44.42
2023-03-31T05:19:19.138Z,45.56
2023-03-31T05:21:50.994Z,43.00
2023-03-31T05:24:21.076Z,44.47
2023-03-31T05:26:53.040Z,44.01
2023-03-31T05:29:23.554Z,44.28
2023-03-31T05:31:53.928Z,45.25
2023-03-31T05:34:23.539Z,45.48
2023-03-31T05:36:54.687Z,45.28
2023-03-31T05:39:24.338Z,43.89
2023-03-31T05:41:53.585Z,44.21
2023-03-31T05:44:23.236Z,45.72
2023-03-31T05:46:52.473Z,45.02
2023-03-31T05:49:22.087Z,42.98
2023-03-31T05:51:51.846Z,44.95
2023-03-31T05:54:22.824Z,45.02
2023-03-31T05:56:52.034Z,44.90
2023-03-31T05:59:21.559Z,44.30
2023-03-31T06:01:50.867Z,43.16
2023-03-31T06:04:20.529Z,43.57
2023-03-31T06:06:50.643Z,44.96
2023-03-31T06:09:21.692Z,44.16
2023-03-31T06:11:50.943Z,43.12
2023-03-31T06:14:20.854Z,43.45
2023-03-31T06:16:50.167Z,43.27
2023-03-31T06:19:19.993Z,44.45
2023-03-31T06:21:49.251Z,44.82
2023-03-31T06:24:18.883Z,44.11
2023-03-31T06:26:50.745Z,44.34
2023-03-31T06:29:21.447Z,43.57
2023-03-31T06:31:50.731Z,42.49
2023-03-31T06:34:21.475Z,42.61
2023-03-31T06:36:51.155Z,42.74
2023-03-31T06:39:20.918Z,44.70
2023-03-31T06:41:51.489Z,46.23
2023-03-31T06:44:29.127Z,45.45
2023-03-31T06:46:58.430Z,44.48
2023-03-31T06:49:28.201Z,45.32
2023-03-31T06:51:57.594Z,45.47
2023-03-31T06:54:27.218Z,43.27
2023-03-31T06:56:57.896Z,43.24
2023-03-31T06:59:27.593Z,44.88
2023-03-31T07:01:58.045Z,43.90
2023-03-31T07:04:27.940Z,43.81
2023-03-31T07:06:59.254Z,45.58
2023-03-31T07:09:29.013Z,47.75
2023-03-31T07:11:59.824Z,45.77
2023-03-31T07:14:29.677Z,43.50
2023-03-31T07:16:59.057Z,44.09
2023-03-31T07:19:28.866Z,43.94
2023-03-31T07:21:58.294Z,44.41
2023-03-31T07:24:27.929Z,45.38
2023-03-31T07:26:58.694Z,42.98
2023-03-31T07:29:28.807Z,41.40
2023-03-31T07:31:58.157Z,43.14
2023-03-31T07:34:27.924Z,41.49
2023-03-31T07:36:57.805Z,40.75
2023-03-31T07:39:27.542Z,41.97
2023-03-31T07:41:58.499Z,41.53
2023-03-31T07:44:28.113Z,41.97
2023-03-31T07:46:58.677Z,41.74
2023-03-31T07:49:28.464Z,40.77
2023-03-31T07:51:58.057Z,40.76
2023-03-31T07:54:28.020Z,41.44
2023-03-31T07:57:01.912Z,39.98
2023-03-31T07:59:32.183Z,39.15
2023-03-31T08:02:01.873Z,38.43
2023-03-31T08:04:31.689Z,39.06
2023-03-31T08:07:00.995Z,40.95
2023-03-31T08:09:30.855Z,40.86
2023-03-31T08:12:01.599Z,40.76
2023-03-31T08:14:40.586Z,39.85
2023-03-31T08:17:11.339Z,39.46
2023-03-31T08:19:41.230Z,41.12
2023-03-31T08:22:10.582Z,40.70
2023-03-31T08:24:40.168Z,39.33
2023-03-31T08:27:12.279Z,36.60
2023-03-31T08:29:42.207Z,38.03
2023-03-31T08:32:11.790Z,37.58
2023-03-31T08:34:42.765Z,36.08
2023-03-31T08:37:11.989Z,37.33
2023-03-31T08:39:41.698Z,37.68
2023-03-31T08:42:17.353Z,38.04
2023-03-31T08:44:54.602Z,38.22
2023-03-31T08:47:28.382Z,36.66
2023-03-31T08:50:01.925Z,37.05
2023-03-31T08:52:35.711Z,35.75
2023-03-31T08:55:09.929Z,35.56
2023-03-31T08:57:51.849Z,36.38
2023-03-31T09:00:22.319Z,37.87
2023-03-31T09:02:57.501Z,38.29
2023-03-31T09:06:00.193Z,38.31
2023-03-31T09:08:42.967Z,37.11
2023-03-31T09:11:22.846Z,36.95
2023-03-31T09:14:16.358Z,36.02
2023-03-31T09:16:54.064Z,34.41
2023-03-31T09:19:32.114Z,34.07
2023-03-31T09:22:02.793Z,33.09
2023-03-31T09:24:36.876Z,34.96
2023-03-31T09:27:09.775Z,35.04
2023-03-31T09:29:46.676Z,35.14
2023-03-31T09:32:18.901Z,36.85
2023-03-31T09:34:51.797Z,35.43
2023-03-31T09:37:21.926Z,34.62
2023-03-31T09:39:51.587Z,32.87
2023-03-31T09:42:21.613Z,32.62
2023-03-31T09:44:52.328Z,34.96
2023-03-31T09:47:30.479Z,36.72
2023-03-31T09:49:59.767Z,36.94
2023-03-31T09:52:32.814Z,38.24
2023-03-31T09:55:03.817Z,36.81
2023-03-31T09:57:36.326Z,35.69
2023-03-31T10:00:16.565Z,35.03
2023-03-31T10:02:50.559Z,35.20
2023-03-31T10:05:32.599Z,36.17
2023-03-31T10:08:25.219Z,35.62
2023-03-31T10:10:56.719Z,36.16
2023-03-31T10:13:29.505Z,36.85
2023-03-31T10:16:08.481Z,36.10
2023-03-31T10:18:39.933Z,36.26
2023-03-31T10:21:19.622Z,38.21
2023-03-31T10:23:50.989Z,36.83
2023-03-31T10:26:23.531Z,37.99
2023-03-31T10:28:55.469Z,38.00
2023-03-31T10:31:35.648Z,36.62
2023-03-31T10:34:09.755Z,38.62
2023-03-31T10:36:39.344Z,39.91
2023-03-31T10:39:10.385Z,40.55
2023-03-31T10:41:41.364Z,40.19
2023-03-31T10:44:33.002Z,38.88
2023-03-31T10:47:18.885Z,38.73
2023-03-31T10:49:53.099Z,37.87
2023-03-31T10:52:24.646Z,38.39
2023-03-31T10:54:58.107Z,36.79
2023-03-31T10:57:37.326Z,36.07
2023-03-31T11:00:21.476Z,35.35
2023-03-31T11:03:24.554Z,34.55
2023-03-31T11:05:56.615Z,33.62
2023-03-31T11:08:43.645Z,34.42
2023-03-31T11:11:28.932Z,33.29
2023-03-31T11:14:07.148Z,36.34
2023-03-31T11:16:46.059Z,34.56
2023-03-31T11:19:30.225Z,34.64
2023-03-31T11:22:06.532Z,34.48
2023-03-31T11:24:53.234Z,33.50
2023-03-31T11:27:37.970Z,34.29
2023-03-31T11:30:20.612Z,33.49
2023-03-31T11:32:59.977Z,34.59
2023-03-31T11:35:54.489Z,33.10
2023-03-31T11:38:50.870Z,33.69
2023-03-31T11:41:24.489Z,34.65
2023-03-31T11:43:56.720Z,35.24
2023-03-31T11:46:33.642Z,35.81
2023-03-31T11:49:06.986Z,35.82
2023-03-31T11:51:45.725Z,36.17
2023-03-31T11:54:21.690Z,32.86
2023-03-31T11:56:52.770Z,33.73
2023-03-31T11:59:27.835Z,32.84
2023-03-31T12:02:05.568Z,32.78
2023-03-31T12:04:38.595Z,30.78
2023-03-31T12:07:22.654Z,31.67
2023-03-31T12:10:06.059Z,32.56
2023-03-31T12:12:41.208Z,30.93
2023-03-31T12:15:18.358Z,29.97
2023-03-31T12:17:54.123Z,32.13
2023-03-31T12:20:31.103Z,32.70
2023-03-31T12:23:03.769Z,33.02
2023-03-31T12:25:45.860Z,33.98
2023-03-31T12:28:16.277Z,32.76
2023-03-31T12:30:46.903Z,32.97
2023-03-31T12:33:21.382Z,32.07
2023-03-31T12:36:08.882Z,33.03
2023-03-31T12:38:51.598Z,33.52
2023-03-31T12:41:30.005Z,33.81
2023-03-31T12:44:18.123Z,34.31
2023-03-31T12:47:12.468Z,34.39
2023-03-31T12:49:56.340Z,34.17
2023-03-31T12:52:38.034Z,35.37
2023-03-31T12:55:34.329Z,35.46
2023-03-31T12:58:38.835Z,36.11
2023-03-31T13:01:11.964Z,36.70
2023-03-31T13:03:48.496Z,36.26
2023-03-31T13:07:01.194Z,36.90
2023-03-31T13:09:48.802Z,36.65
2023-03-31T13:12:22.264Z,36.71
2023-03-31T13:14:54.714Z,37.13
2023-03-31T13:17:28.051Z,37.09
2023-03-31T13:20:16.058Z,38.04
2023-03-31T13:22:48.535Z,38.28
2023-03-31T13:25:44.631Z,38.75
2023-03-31T13:28:33.953Z,38.25
2023-03-31T13:31:05.131Z,38.73
2023-03-31T13:33:43.004Z,38.68
2023-03-31T13:36:36.474Z,39.02
2023-03-31T13:39:30.793Z,39.63
2023-03-31T13:42:20.380Z,38.80
2023-03-31T13:45:16.935Z,38.28
2023-03-31T13:48:16.025Z,38.40
2023-03-31T13:51:11.247Z,37.85
2023-03-31T13:54:24.437Z,38.76
2023-03-31T13:57:27.236Z,39.57
2023-03-31T14:00:26.015Z,39.00
2023-03-31T14:03:27.017Z,38.87
2023-03-31T14:06:02.133Z,38.92
2023-03-31T14:08:50.559Z,38.27
2023-03-31T14:11:25.301Z,38.60
2023-03-31T14:14:06.363Z,38.40
2023-03-31T14:16:41.884Z,39.12
2023-03-31T14:19:36.981Z,39.08
2023-03-31T14:22:15.788Z,39.88
2023-03-31T14:24:53.152Z,39.20
2023-03-31T14:27:41.550Z,40.67
2023-03-31T14:30:21.523Z,40.41
2023-03-31T14:33:15.322Z,39.12
2023-03-31T14:35:49.276Z,39.27
2023-03-31T14:38:24.930Z,39.42
2023-03-31T14:40:56.518Z,41.25
2023-03-31T14:43:29.610Z,40.24
2023-03-31T14:46:03.168Z,40.37
2023-03-31T14:48:36.691Z,41.68
2023-03-31T14:51:10.852Z,42.15
2023-03-31T14:53:40.702Z,40.92
2023-03-31T14:56:13.836Z,39.47
2023-03-31T14:58:48.821Z,42.25
2023-03-31T15:01:21.486Z,40.72
2023-03-31T15:03:55.178Z,42.25
2023-03-31T15:06:27.102Z,42.65
2023-03-31T15:08:59.544Z,43.05
2023-03-31T15:11:30.177Z,41.36
2023-03-31T15:14:05.690Z,41.91
2023-03-31T15:16:42.250Z,41.42
2023-03-31T15:19:20.420Z,40.33
2023-03-31T15:21:56.985Z,41.48
2023-03-31T15:24:26.654Z,41.91
2023-03-31T15:27:01.539Z,41.14
2023-03-31T15:29:39.219Z,42.33
2023-03-31T15:32:15.072Z,41.58
2023-03-31T15:34:48.027Z,40.85
2023-03-31T15:37:17.362Z,41.61
2023-03-31T15:39:49.206Z,40.39
2023-03-31T15:42:19.388Z,41.81
2023-03-31T15:44:54.767Z,40.80
2023-03-31T15:47:29.459Z,40.84
2023-03-31T15:50:13.263Z,40.96
2023-03-31T15:52:53.123Z,41.67
2023-03-31T15:55:29.193Z,41.26
2023-03-31T15:58:00.632Z,40.55
2023-03-31T16:00:48.649Z,39.99
2023-03-31T16:03:24.399Z,40.44
2023-03-31T16:05:57.853Z,41.90
2023-03-31T16:08:31.441Z,44.52
2023-03-31T16:11:06.529Z,43.86
2023-03-31T16:13:39.692Z,43.20
2023-03-31T16:16:11.975Z,42.43
2023-03-31T16:18:44.786Z,42.80
2023-03-31T16:21:22.002Z,44.23
2023-03-31T16:23:55.951Z,43.98
2023-03-31T16:26:28.448Z,43.74
2023-03-31T16:28:58.947Z,43.80
2023-03-31T16:31:35.746Z,43.63
2023-03-31T16:34:08.312Z,41.85
2023-03-31T16:36:40.347Z,45.54
2023-03-31T16:39:09.813Z,44.29
2023-03-31T16:41:39.896Z,45.77
2023-03-31T16:44:09.429Z,45.85
2023-03-31T16:46:39.183Z,47.67
2023-03-31T16:49:08.705Z,45.88
2023-03-31T16:51:39.682Z,45.05
2023-03-31T16:54:08.980Z,45.15
2023-03-31T16:56:38.672Z,45.19
2023-03-31T16:59:09.009Z,44.28
2023-03-31T17:01:38.950Z,43.69
2023-03-31T17:04:08.916Z,43.09
2023-03-31T17:06:39.950Z,42.60
2023-03-31T17:09:09.358Z,42.74
2023-03-31T17:11:39.191Z,43.05
2023-03-31T17:14:08.521Z,42.88
2023-03-31T17:16:47.328Z,43.03
2023-03-31T17:19:18.381Z,44.83
2023-03-31T17:21:49.635Z,45.29
2023-03-31T17:24:18.998Z,43.23
2023-03-31T17:26:48.640Z,44.07
2023-03-31T17:29:18.539Z,44.81
2023-03-31T17:31:48.135Z,42.30
2023-03-31T17:34:18.249Z,41.42
2023-03-31T17:36:51.632Z,41.19
2023-03-31T17:39:21.219Z,41.21
2023-03-31T17:41:50.854Z,42.56
2023-03-31T17:44:20.293Z,42.89
2023-03-31T17:46:50.093Z,42.11
2023-03-31T17:49:20.107Z,40.79
2023-03-31T17:51:51.296Z,42.07
2023-03-31T17:54:20.855Z,40.90
2023-03-31T17:56:50.575Z,40.78
2023-03-31T17:59:20.598Z,40.49
2023-03-31T18:01:50.365Z,40.72
2023-03-31T18:04:20.891Z,41.50
2023-03-31T18:06:52.141Z,41.79
2023-03-31T18:09:22.108Z,40.64
2023-03-31T18:11:52.046Z,42.48
2023-03-31T18:14:21.546Z,42.23
2023-03-31T18:16:51.480Z,41.37
2023-03-31T18:19:22.109Z,40.77
2023-03-31T18:21:53.354Z,40.23
2023-03-31T18:24:22.855Z,41.33
2023-03-31T18:26:52.552Z,40.25
2023-03-31T18:29:21.957Z,40.25
2023-03-31T18:31:52.123Z,40.58
2023-03-31T18:34:21.421Z,39.85
2023-03-31T18:36:53.562Z,41.24
2023-03-31T18:39:23.844Z,41.59
2023-03-31T18:41:54.421Z,41.69
2023-03-31T18:44:24.267Z,41.58
2023-03-31T18:46:54.295Z,40.84
2023-03-31T18:49:23.790Z,41.01
2023-03-31T18:51:55.097Z,40.59
2023-03-31T18:54:26.536Z,40.43
2023-03-31T18:56:56.693Z,40.31
2023-03-31T18:59:26.389Z,40.55
2023-03-31T19:01:56.449Z,39.42
2023-03-31T19:04:27.869Z,40.68
2023-03-31T19:06:59.197Z,40.08
2023-03-31T19:09:28.901Z,40.78
2023-03-31T19:11:58.639Z,39.91
2023-03-31T19:14:28.520Z,40.58
2023-03-31T19:16:58.349Z,40.70
2023-03-31T19:19:29.051Z,42.74
2023-03-31T19:22:00.624Z,41.01
2023-03-31T19:24:30.320Z,40.46
2023-03-31T19:27:01.410Z,41.03
2023-03-31T19:29:31.958Z,41.03
2023-03-31T19:32:01.544Z,40.73
2023-03-31T19:34:31.836Z,40.98
2023-03-31T19:37:04.011Z,40.30
2023-03-31T19:39:33.817Z,42.09
2023-03-31T19:42:03.482Z,42.03
2023-03-31T19:44:35.187Z,41.39
2023-03-31T19:47:05.658Z,41.34
2023-03-31T19:49:35.005Z,41.39
2023-03-31T19:52:06.957Z,41.57
2023-03-31T19:54:36.259Z,41.77
2023-03-31T19:57:05.963Z,40.74
2023-03-31T19:59:35.794Z,41.88
2023-03-31T20:02:05.798Z,45.33
2023-03-31T20:04:36.056Z,44.03
2023-03-31T20:07:07.376Z,42.45
2023-03-31T20:09:37.320Z,42.67
2023-03-31T20:12:07.094Z,46.06
2023-03-31T20:14:36.605Z,43.62
2023-03-31T20:17:07.596Z,44.12
2023-03-31T20:19:36.975Z,42.59
2023-03-31T20:22:08.018Z,43.58
2023-03-31T20:24:38.828Z,42.95
2023-03-31T20:27:08.787Z,43.84
2023-03-31T20:29:38.282Z,43.48
2023-03-31T20:32:09.664Z,42.95
2023-03-31T20:34:39.101Z,43.23
2023-03-31T20:37:10.059Z,43.34
2023-03-31T20:39:39.443Z,43.00
2023-03-31T20:42:09.068Z,44.31
2023-03-31T20:44:38.474Z,45.83
2023-03-31T20:47:08.464Z,46.05
2023-03-31T20:49:37.794Z,45.77
2023-03-31T20:52:09.148Z,44.20
2023-03-31T20:54:38.782Z,43.73
2023-03-31T20:57:08.588Z,45.97
2023-03-31T20:59:39.671Z,44.19
2023-03-31T21:02:11.453Z,42.80
2023-03-31T21:04:41.138Z,46.32
2023-03-31T21:07:12.082Z,47.91
2023-03-31T21:09:41.477Z,48.17
2023-03-31T21:12:11.211Z,45.46
2023-03-31T21:14:40.506Z,43.49
2023-03-31T21:17:10.090Z,46.36
2023-03-31T21:19:39.510Z,45.02
2023-03-31T21:22:09.027Z,43.33
2023-03-31T21:24:39.933Z,44.87
2023-03-31T21:27:09.519Z,46.17
2023-03-31T21:29:38.931Z,45.59
2023-03-31T21:32:09.234Z,46.86
2023-03-31T21:34:38.587Z,45.90
2023-03-31T21:37:08.722Z,47.83
2023-03-31T21:39:39.434Z,45.57
2023-03-31T21:42:09.054Z,45.26
2023-03-31T21:44:38.368Z,44.92
2023-03-31T21:47:08.048Z,44.46
2023-03-31T21:49:37.370Z,46.07
2023-03-31T21:52:07.165Z,45.28
2023-03-31T21:54:36.771Z,45.11
2023-03-31T21:57:08.781Z,45.96
2023-03-31T21:59:38.365Z,46.29
2023-03-31T22:02:08.310Z,45.85
2023-03-31T22:04:37.702Z,47.95
2023-03-31T22:07:07.373Z,46.88
2023-03-31T22:09:36.974Z,46.21
2023-03-31T22:12:08.318Z,46.55
2023-03-31T22:14:38.962Z,45.75
2023-03-31T22:17:08.614Z,46.01
2023-03-31T22:19:38.612Z,46.68
2023-03-31T22:22:08.784Z,44.88
2023-03-31T22:24:38.925Z,45.63
2023-03-31T22:27:09.974Z,44.59
2023-03-31T22:29:39.583Z,46.17
2023-03-31T22:32:09.221Z,45.93
2023-03-31T22:34:38.442Z,45.08
2023-03-31T22:37:08.060Z,46.38
2023-03-31T22:39:37.448Z,48.60
2023-03-31T22:42:08.715Z,46.80
2023-03-31T22:44:40.366Z,48.00
2023-03-31T22:47:10.329Z,46.80
2023-03-31T22:49:39.837Z,45.39
2023-03-31T22:52:09.486Z,46.07
2023-03-31T22:54:40.203Z,48.25
2023-03-31T22:57:11.396Z,46.32
2023-03-31T22:59:40.774Z,46.38
2023-03-31T23:02:10.302Z,46.19
2023-03-31T23:04:39.626Z,44.92
2023-03-31T23:07:09.287Z,46.33
2023-03-31T23:09:38.625Z,46.04
2023-03-31T23:12:08.597Z,46.73
2023-03-31T23:14:39.598Z,46.62
2023-03-31T23:17:09.210Z,44.86
2023-03-31T23:19:38.903Z,47.16
2023-03-31T23:22:08.560Z,47.37
2023-03-31T23:24:37.868Z,48.57
2023-03-31T23:27:07.543Z,46.37
2023-03-31T23:29:38.445Z,45.57
2023-03-31T23:32:08.312Z,47.64
2023-03-31T23:34:41.658Z,47.76
2023-03-31T23:37:12.139Z,47.69
2023-03-31T23:39:41.974Z,46.05
2023-03-31T23:42:16.225Z,47.42
2023-03-31T23:44:46.982Z,47.13
2023-03-31T23:47:16.601Z,45.99
2023-03-31T23:49:46.104Z,46.15
2023-03-31T23:52:15.629Z,46.69
2023-03-31T23:54:44.980Z,46.67
2023-03-31T23:57:14.701Z,45.73
2023-03-31T23:59:45.639Z,44.59
